Time;durP1;ratioP1;P1;durP2;ratioP2;P2;SDS_P1;SDS_P2;PMS_P1;PMS_P2;Temp;Humidity;BMP_temperature;BMP_pressure;BME280_temperature;BME280_humidity;BME280_pressure;Samples;Min_cycle;Max_cycle;Signal;HPM_P1;HPM_P2
2021/01/12 00:01:11;;;;;;;17.25;14.93;;;;;;;;;;5010601;28;20390;-84
2021/01/12 00:03:37;;;;;;;16.33;14.63;;;;;;;;;;5009452;28;20371;-85
2021/01/12 00:06:03;;;;;;;16.50;14.80;;;;;;;;;;5009767;28;20403;-84
2021/01/12 00:08:29;;;;;;;17.17;15.38;;;;;;;;;;5009607;28;20795;-84
2021/01/12 00:10:55;;;;;;;16.73;14.80;;;;;;;;;;5010498;28;20462;-84
2021/01/12 00:13:23;;;;;;;17.75;15.70;;;;;;;;;;5010896;28;20497;-84
2021/01/12 00:15:49;;;;;;;18.15;15.65;;;;;;;;;;5011202;28;20367;-84
2021/01/12 00:18:15;;;;;;;17.38;15.10;;;;;;;;;;5009410;28;20734;-85
2021/01/12 00:20:41;;;;;;;16.50;14.73;;;;;;;;;;5009373;28;20360;-85
2021/01/12 00:23:07;;;;;;;17.10;15.30;;;;;;;;;;5010975;28;20370;-84
2021/01/12 00:25:33;;;;;;;17.23;15.43;;;;;;;;;;5009219;28;20383;-84
2021/01/12 00:27:59;;;;;;;16.80;15.05;;;;;;;;;;5009405;28;20367;-85
2021/01/12 00:30:25;;;;;;;17.35;15.27;;;;;;;;;;5009877;28;20373;-84
2021/01/12 00:32:51;;;;;;;17.38;15.55;;;;;;;;;;5010246;28;20371;-85
2021/01/12 00:35:17;;;;;;;17.67;15.80;;;;;;;;;;5009341;28;20436;-84
2021/01/12 00:37:43;;;;;;;17.17;14.73;;;;;;;;;;5010671;28;20494;-84
2021/01/12 00:40:10;;;;;;;17.92;15.52;;;;;;;;;;5010727;28;20450;-84
2021/01/12 00:42:36;;;;;;;17.92;15.65;;;;;;;;;;5009003;28;20398;-84
2021/01/12 00:45:02;;;;;;;16.90;15.10;;;;;;;;;;5010586;28;20363;-84
2021/01/12 00:47:28;;;;;;;16.88;15.07;;;;;;;;;;5010274;28;20378;-84
2021/01/12 00:49:54;;;;;;;17.00;15.13;;;;;;;;;;5010013;28;20746;-85
2021/01/12 00:52:20;;;;;;;18.50;16.50;;;;;;;;;;5010145;28;20427;-85
2021/01/12 00:54:46;;;;;;;18.05;15.80;;;;;;;;;;5010483;28;20472;-84
2021/01/12 00:57:12;;;;;;;17.58;15.77;;;;;;;;;;5010605;28;20696;-85
2021/01/12 00:59:38;;;;;;;18.92;16.05;;;;;;;;;;5010296;28;20375;-84
2021/01/12 01:02:05;;;;;;;17.70;15.82;;;;;;;;;;5009920;28;20371;-84
2021/01/12 01:04:31;;;;;;;19.20;16.13;;;;;;;;;;5010159;28;20532;-85
2021/01/12 01:06:57;;;;;;;18.27;16.27;;;;;;;;;;5010446;28;20390;-84
2021/01/12 01:09:24;;;;;;;19.00;16.77;;;;;;;;;;5008858;28;20410;-85
2021/01/12 01:11:51;;;;;;;18.07;16.17;;;;;;;;;;5008742;28;20750;-85
2021/01/12 01:14:17;;;;;;;18.23;16.33;;;;;;;;;;5008585;28;20431;-85
2021/01/12 01:16:44;;;;;;;19.23;17.23;;;;;;;;;;5008695;28;20886;-85
2021/01/12 01:19:10;;;;;;;19.30;17.23;;;;;;;;;;5008802;28;20383;-85
2021/01/12 01:21:36;;;;;;;20.05;17.83;;;;;;;;;;5010592;28;20381;-84
2021/01/12 01:24:02;;;;;;;20.90;18.10;;;;;;;;;;5010298;28;20367;-85
2021/01/12 01:26:29;;;;;;;23.10;19.65;;;;;;;;;;5008697;28;20450;-84
2021/01/12 01:28:55;;;;;;;24.27;20.50;;;;;;;;;;5008905;28;20403;-84
2021/01/12 01:31:21;;;;;;;26.65;22.38;;;;;;;;;;5009548;28;20363;-84
2021/01/12 01:33:47;;;;;;;27.30;22.98;;;;;;;;;;5008640;28;20410;-84
2021/01/12 01:36:14;;;;;;;25.85;23.05;;;;;;;;;;5008636;28;20440;-85
2021/01/12 01:38:40;;;;;;;30.40;24.83;;;;;;;;;;5008867;28;20375;-85
2021/01/12 01:41:07;;;;;;;30.77;25.73;;;;;;;;;;5010012;28;20433;-85
2021/01/12 01:43:33;;;;;;;34.72;26.70;;;;;;;;;;5013134;28;20359;-85
2021/01/12 01:46:00;;;;;;;33.25;27.67;;;;;;;;;;5013175;28;20360;-85
2021/01/12 01:48:26;;;;;;;34.33;27.90;;;;;;;;;;5013084;28;20359;-85
2021/01/12 01:50:52;;;;;;;34.45;28.63;;;;;;;;;;5013038;28;20378;-85
2021/01/12 01:53:18;;;;;;;38.28;30.65;;;;;;;;;;5011698;28;20703;-86
2021/01/12 01:55:46;;;;;;;39.17;32.00;;;;;;;;;;4995508;28;20411;-85
2021/01/12 01:58:12;;;;;;;39.95;32.25;;;;;;;;;;5012915;28;20846;-86
2021/01/12 02:00:38;;;;;;;42.50;32.88;;;;;;;;;;5011537;28;20382;-85
2021/01/12 02:03:13;;;;;;;44.65;34.75;;;;;;;;;;5012812;28;20367;-85
2021/01/12 02:05:40;;;;;;;45.75;34.67;;;;;;;;;;5011450;28;20750;-86
2021/01/12 02:08:07;;;;;;;46.63;35.70;;;;;;;;;;5011522;28;20464;-85
2021/01/12 02:10:36;;;;;;;50.70;37.40;;;;;;;;;;5011323;28;20376;-85
2021/01/12 02:13:03;;;;;;;50.55;37.53;;;;;;;;;;5011280;28;20372;-86
2021/01/12 02:15:30;;;;;;;54.85;38.15;;;;;;;;;;5011575;28;20470;-86
2021/01/12 02:17:56;;;;;;;52.55;38.70;;;;;;;;;;5011898;28;20375;-85
2021/01/12 02:20:26;;;;;;;53.63;38.53;;;;;;;;;;5012973;28;20363;-86
2021/01/12 02:23:05;;;;;;;55.08;39.53;;;;;;;;;;5012799;28;20374;-86
2021/01/12 02:25:32;;;;;;;52.00;38.25;;;;;;;;;;5011177;28;20371;-86
2021/01/12 02:27:58;;;;;;;53.50;38.75;;;;;;;;;;5013003;28;20371;-85
2021/01/12 02:30:24;;;;;;;54.50;39.90;;;;;;;;;;5012315;28;20399;-84
2021/01/12 02:32:51;;;;;;;56.70;41.25;;;;;;;;;;5011268;28;20403;-85
2021/01/12 02:35:18;;;;;;;53.08;39.67;;;;;;;;;;5012285;28;20421;-85
2021/01/12 02:37:45;;;;;;;57.25;41.60;;;;;;;;;;5012510;28;20391;-84
2021/01/12 02:40:11;;;;;;;58.33;42.78;;;;;;;;;;5012122;28;20973;-86
2021/01/12 02:42:41;;;;;;;54.28;40.47;;;;;;;;;;5010490;28;20375;-85
2021/01/12 02:45:08;;;;;;;52.33;39.88;;;;;;;;;;5012484;28;20386;-85
2021/01/12 02:47:35;;;;;;;51.35;38.88;;;;;;;;;;5012277;28;20374;-85
2021/01/12 02:50:02;;;;;;;55.15;41.83;;;;;;;;;;5011724;28;21038;-85
2021/01/12 02:52:28;;;;;;;57.58;41.60;;;;;;;;;;5011509;28;20363;-85
2021/01/12 02:54:54;;;;;;;55.05;40.65;;;;;;;;;;5010878;28;20406;-85
2021/01/12 02:57:20;;;;;;;59.33;43.73;;;;;;;;;;5011974;28;20359;-85
2021/01/12 02:59:46;;;;;;;56.05;42.85;;;;;;;;;;5011618;28;20370;-85
2021/01/12 03:02:12;;;;;;;57.08;42.97;;;;;;;;;;5010738;28;20372;-85
2021/01/12 03:04:38;;;;;;;58.63;42.77;;;;;;;;;;5011701;28;20489;-85
2021/01/12 03:07:04;;;;;;;56.92;41.95;;;;;;;;;;5011771;28;20367;-85
2021/01/12 03:09:30;;;;;;;60.83;43.95;;;;;;;;;;5010299;28;20383;-86
2021/01/12 03:11:56;;;;;;;59.75;43.85;;;;;;;;;;5010685;28;20379;-85
2021/01/12 03:14:23;;;;;;;53.88;41.58;;;;;;;;;;5011564;28;20442;-86
2021/01/12 03:16:51;;;;;;;53.38;40.90;;;;;;;;;;5011607;28;20438;-85
2021/01/12 03:19:18;;;;;;;55.80;41.57;;;;;;;;;;5011675;28;20379;-85
2021/01/12 03:21:44;;;;;;;54.10;41.70;;;;;;;;;;5010262;28;20842;-85
2021/01/12 03:24:10;;;;;;;57.38;42.63;;;;;;;;;;4994083;28;20865;-85
2021/01/12 03:26:38;;;;;;;53.60;40.95;;;;;;;;;;5010157;28;20375;-84
2021/01/12 03:29:04;;;;;;;52.85;41.10;;;;;;;;;;5010312;28;20461;-86
2021/01/12 03:31:30;;;;;;;51.53;40.17;;;;;;;;;;5011234;28;20359;-85
2021/01/12 03:33:56;;;;;;;54.13;41.85;;;;;;;;;;5009860;28;20405;-85
2021/01/12 03:36:22;;;;;;;48.42;39.13;;;;;;;;;;5009889;28;20813;-85
2021/01/12 03:38:49;;;;;;;56.00;42.83;;;;;;;;;;5011773;28;20370;-85
2021/01/12 03:41:15;;;;;;;54.67;42.75;;;;;;;;;;5009644;28;20371;-85
2021/01/12 03:43:41;;;;;;;55.30;42.10;;;;;;;;;;5009823;28;20375;-85
2021/01/12 03:46:07;;;;;;;54.65;42.55;;;;;;;;;;5009782;28;20377;-86
2021/01/12 03:48:33;;;;;;;53.95;42.08;;;;;;;;;;5011423;28;20363;-85
2021/01/12 03:50:59;;;;;;;51.95;40.55;;;;;;;;;;5010548;28;20371;-85
2021/01/12 03:53:25;;;;;;;53.40;41.90;;;;;;;;;;5010888;28;20459;-85
2021/01/12 03:55:51;;;;;;;54.40;41.47;;;;;;;;;;5011261;28;20941;-86
2021/01/12 03:58:18;;;;;;;52.80;42.05;;;;;;;;;;5011745;28;20377;-85
2021/01/12 04:00:44;;;;;;;52.75;41.95;;;;;;;;;;4993478;28;20779;-85
2021/01/12 04:03:10;;;;;;;50.70;40.38;;;;;;;;;;5010099;28;20368;-85
2021/01/12 04:05:38;;;;;;;46.28;39.10;;;;;;;;;;5010344;28;20458;-85
2021/01/12 04:08:07;;;;;;;52.80;42.03;;;;;;;;;;5013484;28;20368;-85
2021/01/12 04:10:33;;;;;;;55.07;42.50;;;;;;;;;;5011894;28;20367;-85
2021/01/12 04:13:02;;;;;;;53.47;41.70;;;;;;;;;;5010795;28;20383;-84
2021/01/12 04:15:28;;;;;;;49.90;39.90;;;;;;;;;;5011254;28;20406;-85
2021/01/12 04:17:54;;;;;;;52.00;40.93;;;;;;;;;;5009490;28;20750;-85
2021/01/12 04:20:21;;;;;;;55.65;42.50;;;;;;;;;;5011077;28;20371;-86
2021/01/12 04:22:47;;;;;;;53.47;41.15;;;;;;;;;;5009797;28;20375;-85
2021/01/12 04:25:13;;;;;;;52.58;42.28;;;;;;;;;;5010953;28;20378;-85
2021/01/12 04:27:39;;;;;;;55.10;42.92;;;;;;;;;;5010264;28;20382;-85
2021/01/12 04:30:06;;;;;;;53.60;41.47;;;;;;;;;;5009107;28;20801;-86
2021/01/12 04:32:32;;;;;;;56.42;42.25;;;;;;;;;;5009237;28;20372;-84
2021/01/12 04:34:58;;;;;;;51.67;41.88;;;;;;;;;;5010950;28;20952;-86
2021/01/12 04:37:24;;;;;;;51.35;40.95;;;;;;;;;;5009634;28;20383;-86
2021/01/12 04:39:50;;;;;;;51.13;40.15;;;;;;;;;;5009682;28;20371;-86
2021/01/12 04:42:16;;;;;;;51.47;42.03;;;;;;;;;;5011081;28;20761;-86
2021/01/12 04:44:42;;;;;;;50.75;40.47;;;;;;;;;;5009630;28;20375;-87
2021/01/12 04:47:08;;;;;;;49.38;40.40;;;;;;;;;;5010631;28;20901;-85
2021/01/12 04:49:34;;;;;;;52.60;41.37;;;;;;;;;;5010647;28;20510;-86
2021/01/12 04:52:01;;;;;;;50.67;40.35;;;;;;;;;;5010497;28;20916;-86
2021/01/12 04:54:35;;;;;;;51.20;40.55;;;;;;;;;;5009446;28;20410;-86
2021/01/12 04:57:01;;;;;;;48.40;38.95;;;;;;;;;;5009494;28;20375;-86
2021/01/12 04:59:34;;;;;;;50.67;41.13;;;;;;;;;;5010082;28;20400;-86
2021/01/12 05:02:01;;;;;;;52.00;41.58;;;;;;;;;;4993584;28;20433;-86
2021/01/12 05:04:27;;;;;;;53.95;42.53;;;;;;;;;;5010185;28;20363;-86
2021/01/12 05:06:56;;;;;;;54.60;43.50;;;;;;;;;;5010516;28;20479;-86
2021/01/12 05:09:23;;;;;;;54.78;42.28;;;;;;;;;;5010260;28;20370;-85
2021/01/12 05:11:49;;;;;;;57.70;42.92;;;;;;;;;;5010433;28;20442;-85
2021/01/12 05:14:16;;;;;;;54.47;43.72;;;;;;;;;;4992726;28;20446;-86
2021/01/12 05:16:58;;;;;;;54.47;42.53;;;;;;;;;;5012994;28;20379;-87
2021/01/12 05:19:27;;;;;;;55.35;43.92;;;;;;;;;;5014365;28;20367;-86
2021/01/12 05:21:55;;;;;;;57.05;43.60;;;;;;;;;;5012779;28;20371;-87
2021/01/12 05:24:22;;;;;;;52.78;41.83;;;;;;;;;;5013731;28;20872;-87
2021/01/12 05:26:49;;;;;;;51.88;41.45;;;;;;;;;;5013227;28;20371;-87
2021/01/12 05:29:15;;;;;;;55.75;42.42;;;;;;;;;;5013887;28;20374;-86
2021/01/12 05:31:44;;;;;;;57.22;44.35;;;;;;;;;;5013060;28;20459;-88
2021/01/12 05:34:10;;;;;;;50.05;40.88;;;;;;;;;;5013132;28;20920;-86
2021/01/12 05:36:53;;;;;;;49.05;39.60;;;;;;;;;;5012614;28;20395;-86
2021/01/12 05:39:20;;;;;;;50.17;39.15;;;;;;;;;;5013289;28;20486;-85
2021/01/12 05:41:47;;;;;;;56.20;42.13;;;;;;;;;;5013496;28;21091;-86
2021/01/12 05:44:17;;;;;;;52.57;40.80;;;;;;;;;;5013393;28;20426;-90
2021/01/12 05:46:47;;;;;;;51.58;40.08;;;;;;;;;;5013206;28;20371;-84
2021/01/12 05:49:13;;;;;;;54.03;43.00;;;;;;;;;;5009052;28;20829;-85
2021/01/12 05:51:46;;;;;;;54.22;41.75;;;;;;;;;;4998886;28;20913;-85
2021/01/12 05:54:27;;;;;;;51.50;39.70;;;;;;;;;;5011931;28;20415;-84
2021/01/12 05:56:56;;;;;;;49.53;38.65;;;;;;;;;;5013548;28;20359;-84
2021/01/12 05:59:26;;;;;;;51.45;39.45;;;;;;;;;;5012480;28;20383;-85
2021/01/12 06:01:57;;;;;;;48.42;39.55;;;;;;;;;;5013728;28;20374;-86
2021/01/12 06:04:23;;;;;;;48.15;38.63;;;;;;;;;;4995801;28;20882;-85
2021/01/12 06:06:51;;;;;;;45.67;36.83;;;;;;;;;;5013781;28;20427;-87
2021/01/12 06:09:17;;;;;;;42.67;35.37;;;;;;;;;;5012318;28;20763;-86
2021/01/12 06:11:45;;;;;;;41.85;35.72;;;;;;;;;;5010297;28;20408;-85
2021/01/12 06:14:15;;;;;;;42.85;36.10;;;;;;;;;;5002290;28;20400;-85
2021/01/12 06:16:42;;;;;;;43.88;37.20;;;;;;;;;;5002542;28;20384;-86
2021/01/12 06:19:17;;;;;;;44.88;36.55;;;;;;;;;;5003666;28;20394;-85
2021/01/12 06:21:56;;;;;;;45.92;36.85;;;;;;;;;;5002723;28;20403;-85
2021/01/12 06:24:21;;;;;;;43.65;36.45;;;;;;;;;;4998391;28;20451;-85
2021/01/12 06:26:51;;;;;;;41.30;35.58;;;;;;;;;;5000430;28;20378;-84
2021/01/12 06:29:18;;;;;;;44.55;35.25;;;;;;;;;;4996356;28;20380;-85
2021/01/12 06:31:48;;;;;;;41.53;35.23;;;;;;;;;;4999938;28;20898;-85
2021/01/12 06:34:19;;;;;;;41.08;35.20;;;;;;;;;;5003822;28;20423;-84
2021/01/12 06:36:52;;;;;;;43.10;36.58;;;;;;;;;;5000964;28;20384;-85
2021/01/12 06:39:36;;;;;;;40.88;34.60;;;;;;;;;;5009082;28;20363;-84
2021/01/12 06:42:05;;;;;;;42.42;36.03;;;;;;;;;;4999946;28;20481;-85
2021/01/12 06:44:32;;;;;;;42.55;36.10;;;;;;;;;;5002749;28;20474;-85
2021/01/12 06:46:58;;;;;;;40.22;34.78;;;;;;;;;;5001362;28;20372;-86
2021/01/12 06:49:27;;;;;;;38.40;33.20;;;;;;;;;;5000281;28;20360;-86
2021/01/12 06:52:01;;;;;;;39.35;34.17;;;;;;;;;;4985804;28;20407;-86
2021/01/12 06:54:31;;;;;;;40.67;34.22;;;;;;;;;;4997860;28;20500;-86
2021/01/12 06:57:01;;;;;;;38.63;33.40;;;;;;;;;;4974906;28;20443;-87
2021/01/12 06:59:34;;;;;;;38.78;33.35;;;;;;;;;;4990884;28;20369;-84
2021/01/12 07:02:00;;;;;;;39.63;34.70;;;;;;;;;;4991320;28;20413;-90
2021/01/12 07:04:29;;;;;;;36.75;32.10;;;;;;;;;;4992541;28;20678;-84
2021/01/12 07:06:57;;;;;;;35.45;31.67;;;;;;;;;;4991465;28;20419;-89
2021/01/12 07:09:25;;;;;;;35.60;30.80;;;;;;;;;;4992041;28;20378;-85
2021/01/12 07:11:51;;;;;;;36.42;32.15;;;;;;;;;;5000843;28;20357;-86
2021/01/12 07:14:26;;;;;;;36.83;32.22;;;;;;;;;;4993321;28;20879;-86
2021/01/12 07:16:52;;;;;;;38.10;33.40;;;;;;;;;;5010364;28;20429;-87
2021/01/12 07:19:19;;;;;;;38.70;32.97;;;;;;;;;;5010608;28;20682;-84
2021/01/12 07:21:46;;;;;;;37.20;33.03;;;;;;;;;;5011862;28;20446;-85
2021/01/12 07:24:16;;;;;;;36.10;32.20;;;;;;;;;;5010455;28;20371;-84
2021/01/12 07:26:43;;;;;;;36.53;31.25;;;;;;;;;;5011578;28;20359;-83
2021/01/12 07:29:11;;;;;;;35.42;31.52;;;;;;;;;;5011029;28;20359;-83
2021/01/12 07:31:37;;;;;;;37.33;32.85;;;;;;;;;;5011286;28;20367;-83
2021/01/12 07:34:03;;;;;;;34.42;30.55;;;;;;;;;;5009809;28;20834;-83
2021/01/12 07:36:29;;;;;;;34.40;30.55;;;;;;;;;;5011787;28;20383;-83
2021/01/12 07:38:55;;;;;;;33.03;29.17;;;;;;;;;;5009763;28;20421;-83
2021/01/12 07:41:21;;;;;;;34.80;31.00;;;;;;;;;;5009426;28;20359;-83
2021/01/12 07:43:47;;;;;;;36.03;31.17;;;;;;;;;;5010955;28;20367;-84
2021/01/12 07:46:22;;;;;;;35.08;30.15;;;;;;;;;;5011036;28;20758;-83
2021/01/12 07:48:49;;;;;;;33.38;29.75;;;;;;;;;;5011129;28;20359;-82
2021/01/12 07:51:15;;;;;;;30.65;27.33;;;;;;;;;;5010637;28;20719;-83
2021/01/12 07:53:41;;;;;;;32.30;28.77;;;;;;;;;;5009490;28;20368;-83
2021/01/12 07:56:07;;;;;;;29.95;26.88;;;;;;;;;;5011336;28;20366;-83
2021/01/12 07:58:34;;;;;;;30.60;27.35;;;;;;;;;;5011039;28;20862;-84
2021/01/12 08:01:00;;;;;;;29.52;26.45;;;;;;;;;;5008764;28;20371;-83
2021/01/12 08:03:27;;;;;;;28.23;25.38;;;;;;;;;;5009696;28;20370;-84
2021/01/12 08:05:59;;;;;;;28.60;25.70;;;;;;;;;;5011016;28;20454;-83
2021/01/12 08:08:26;;;;;;;29.52;26.40;;;;;;;;;;5011556;28;20376;-83
2021/01/12 08:10:52;;;;;;;29.52;25.73;;;;;;;;;;5008953;28;20432;-83
2021/01/12 08:13:18;;;;;;;30.27;27.05;;;;;;;;;;5009414;28;20515;-83
2021/01/12 08:15:45;;;;;;;27.75;24.85;;;;;;;;;;5011102;28;20394;-83
2021/01/12 08:18:12;;;;;;;28.45;25.40;;;;;;;;;;4993435;28;20398;-83
2021/01/12 08:20:38;;;;;;;28.33;25.33;;;;;;;;;;5010286;28;20367;-83
2021/01/12 08:23:04;;;;;;;25.53;22.93;;;;;;;;;;5010638;28;20367;-84
2021/01/12 08:25:32;;;;;;;25.98;23.25;;;;;;;;;;5011155;28;20398;-83
2021/01/12 08:27:59;;;;;;;25.92;23.23;;;;;;;;;;5010756;28;20367;-84
2021/01/12 08:30:26;;;;;;;26.58;23.77;;;;;;;;;;5013111;28;20454;-83
2021/01/12 08:32:56;;;;;;;23.47;21.17;;;;;;;;;;5011045;28;20367;-83
2021/01/12 08:35:24;;;;;;;25.17;22.58;;;;;;;;;;5009461;28;20405;-83
2021/01/12 08:37:50;;;;;;;23.83;21.43;;;;;;;;;;5009425;28;20724;-83
2021/01/12 08:40:16;;;;;;;24.92;22.33;;;;;;;;;;5010258;28;20363;-84
2021/01/12 08:42:42;;;;;;;23.77;21.38;;;;;;;;;;5010166;28;20470;-82
2021/01/12 08:45:16;;;;;;;25.30;22.35;;;;;;;;;;5011528;28;20378;-83
2021/01/12 08:47:42;;;;;;;22.58;20.17;;;;;;;;;;5011581;28;20755;-86
2021/01/12 08:50:09;;;;;;;22.98;20.55;;;;;;;;;;5010212;28;20446;-82
2021/01/12 08:52:37;;;;;;;22.02;19.77;;;;;;;;;;5014446;28;20719;-86
2021/01/12 08:55:04;;;;;;;21.00;18.83;;;;;;;;;;5014950;28;20847;-85
2021/01/12 08:57:30;;;;;;;22.27;20.00;;;;;;;;;;5015650;28;20458;-87
2021/01/12 08:59:56;;;;;;;19.93;17.93;;;;;;;;;;5020354;28;20390;-82
2021/01/12 09:02:22;;;;;;;19.55;17.65;;;;;;;;;;5015074;28;20390;-84
2021/01/12 09:05:09;;;;;;;20.98;18.83;;;;;;;;;;5014816;28;20373;-80
2021/01/12 09:07:35;;;;;;;21.15;18.95;;;;;;;;;;5014506;28;20367;-84
2021/01/12 09:10:01;;;;;;;20.23;18.23;;;;;;;;;;5014587;28;20813;-86
2021/01/12 09:12:27;;;;;;;19.48;17.48;;;;;;;;;;5014592;28;20409;-86
2021/01/12 09:14:53;;;;;;;20.10;18.10;;;;;;;;;;5014655;28;20395;-86
2021/01/12 09:17:20;;;;;;;19.50;17.58;;;;;;;;;;5014463;28;20359;-88
2021/01/12 09:19:50;;;;;;;19.33;17.35;;;;;;;;;;5014637;28;20757;-88
2021/01/12 09:22:17;;;;;;;18.08;16.27;;;;;;;;;;5012810;28;20888;-82
2021/01/12 09:24:47;;;;;;;19.42;17.48;;;;;;;;;;5013563;28;20387;-82
2021/01/12 09:27:21;;;;;;;17.70;15.90;;;;;;;;;;5015340;28;20771;-88
2021/01/12 09:29:47;;;;;;;18.35;16.60;;;;;;;;;;5013828;28;20463;-86
2021/01/12 09:32:13;;;;;;;18.27;16.40;;;;;;;;;;5014506;28;20842;-85
2021/01/12 09:34:43;;;;;;;16.15;14.57;;;;;;;;;;5007805;28;20502;-86
2021/01/12 09:37:15;;;;;;;15.23;13.83;;;;;;;;;;5000974;28;20384;-86
2021/01/12 09:39:43;;;;;;;16.10;14.50;;;;;;;;;;5003254;28;20478;-88
2021/01/12 09:42:09;;;;;;;17.07;15.37;;;;;;;;;;5003872;28;20373;-85
2021/01/12 09:44:35;;;;;;;16.15;14.45;;;;;;;;;;5002025;28;20386;-85
2021/01/12 09:47:02;;;;;;;15.40;14.00;;;;;;;;;;5014690;28;20465;-84
2021/01/12 09:49:28;;;;;;;14.70;13.30;;;;;;;;;;5014371;28;20371;-88
2021/01/12 09:51:54;;;;;;;15.90;14.38;;;;;;;;;;5012844;28;20422;-87
2021/01/12 09:54:23;;;;;;;13.80;12.50;;;;;;;;;;5013967;28;20399;-87
2021/01/12 09:56:49;;;;;;;13.48;12.18;;;;;;;;;;5013292;28;20394;-86
2021/01/12 09:59:19;;;;;;;13.38;12.07;;;;;;;;;;5012489;28;20391;-88
2021/01/12 10:01:46;;;;;;;12.93;11.73;;;;;;;;;;5015111;28;20426;-85
2021/01/12 10:04:12;;;;;;;13.77;12.48;;;;;;;;;;5013077;28;20386;-85
2021/01/12 10:06:38;;;;;;;14.48;13.18;;;;;;;;;;5013672;28;20383;-84
2021/01/12 10:09:04;;;;;;;12.27;11.10;;;;;;;;;;4997551;28;20383;-87
2021/01/12 10:11:30;;;;;;;13.38;12.18;;;;;;;;;;5014975;28;20421;-87
2021/01/12 10:13:58;;;;;;;14.98;13.48;;;;;;;;;;5011116;28;20375;-88
2021/01/12 10:16:24;;;;;;;13.30;11.90;;;;;;;;;;5011526;28;20379;-85
2021/01/12 10:18:50;;;;;;;14.02;12.70;;;;;;;;;;5014087;28;20458;-83
2021/01/12 10:21:17;;;;;;;13.07;11.77;;;;;;;;;;5004816;28;20408;-85
2021/01/12 10:23:49;;;;;;;13.88;12.48;;;;;;;;;;5005234;28;20364;-90
2021/01/12 10:26:16;;;;;;;13.65;12.35;;;;;;;;;;4998526;28;20368;-87
2021/01/12 10:28:46;;;;;;;13.95;12.65;;;;;;;;;;5003363;28;20443;-85
2021/01/12 10:31:20;;;;;;;13.73;12.23;;;;;;;;;;5010702;28;20462;-86
2021/01/12 10:34:05;;;;;;;14.38;12.98;;;;;;;;;;4999259;28;20369;-84
2021/01/12 10:36:31;;;;;;;13.43;12.13;;;;;;;;;;5005236;28;20850;-84
2021/01/12 10:38:57;;;;;;;12.65;11.45;;;;;;;;;;5013042;28;20501;-89
2021/01/12 10:41:26;;;;;;;12.77;11.57;;;;;;;;;;5011258;28;20402;-86
2021/01/12 10:43:55;;;;;;;11.85;10.75;;;;;;;;;;5013176;28;20379;-87
2021/01/12 10:46:24;;;;;;;11.68;10.57;;;;;;;;;;5013919;28;20375;-86
2021/01/12 10:48:53;;;;;;;11.43;10.32;;;;;;;;;;5013929;28;20375;-85
2021/01/12 10:51:20;;;;;;;10.98;9.98;;;;;;;;;;5014368;28;20375;-87
2021/01/12 10:53:46;;;;;;;11.10;10.10;;;;;;;;;;5020971;28;20446;-86
2021/01/12 10:56:15;;;;;;;11.90;10.80;;;;;;;;;;5013047;28;20390;-86
2021/01/12 10:58:43;;;;;;;10.88;9.88;;;;;;;;;;5012669;28;20885;-87
2021/01/12 11:01:14;;;;;;;11.70;10.55;;;;;;;;;;4996442;28;20375;-88
2021/01/12 11:03:42;;;;;;;11.03;10.03;;;;;;;;;;5011417;28;20786;-85
2021/01/12 11:06:08;;;;;;;11.77;10.68;;;;;;;;;;4998734;28;20917;-85
2021/01/12 11:08:34;;;;;;;11.50;10.40;;;;;;;;;;5012266;28;20375;-86
2021/01/12 11:11:03;;;;;;;11.85;10.68;;;;;;;;;;5012095;28;20470;-85
2021/01/12 11:13:30;;;;;;;11.75;10.65;;;;;;;;;;5013518;28;20374;-85
2021/01/12 11:16:17;;;;;;;11.57;10.48;;;;;;;;;;5013551;28;20399;-85
2021/01/12 11:18:50;;;;;;;12.20;11.00;;;;;;;;;;5012334;28;20441;-86
2021/01/12 11:21:16;;;;;;;12.88;11.65;;;;;;;;;;5012114;28;20887;-86
2021/01/12 11:23:42;;;;;;;12.88;11.57;;;;;;;;;;5011994;28;20419;-87
2021/01/12 11:26:11;;;;;;;12.45;11.25;;;;;;;;;;5012597;28;20386;-87
2021/01/12 11:28:39;;;;;;;12.25;11.13;;;;;;;;;;5013160;28;20410;-86
2021/01/12 11:31:06;;;;;;;14.30;12.90;;;;;;;;;;5012336;28;20920;-86
2021/01/12 11:33:34;;;;;;;12.52;11.32;;;;;;;;;;5012031;28;20462;-84
2021/01/12 11:36:03;;;;;;;13.17;11.87;;;;;;;;;;5013356;28;20427;-86
2021/01/12 11:38:30;;;;;;;13.55;12.25;;;;;;;;;;5013211;28;20383;-86
2021/01/12 11:40:56;;;;;;;12.18;11.07;;;;;;;;;;5011637;28;20376;-83
2021/01/12 11:43:24;;;;;;;12.20;11.00;;;;;;;;;;5013059;28;20505;-84
2021/01/12 11:45:50;;;;;;;14.63;13.25;;;;;;;;;;5013492;28;20414;-83
2021/01/12 11:48:16;;;;;;;13.80;12.50;;;;;;;;;;5013701;28;20406;-84
2021/01/12 11:50:42;;;;;;;14.65;13.20;;;;;;;;;;5013049;28;20490;-84
2021/01/12 11:53:09;;;;;;;15.10;13.63;;;;;;;;;;5011603;28;20854;-85
2021/01/12 11:55:40;;;;;;;15.02;13.63;;;;;;;;;;5009707;28;20411;-82
2021/01/12 11:58:06;;;;;;;16.27;14.68;;;;;;;;;;5011205;28;20379;-84
2021/01/12 12:00:32;;;;;;;14.95;13.55;;;;;;;;;;5012370;28;20870;-82
2021/01/12 12:03:00;;;;;;;13.75;12.35;;;;;;;;;;5011014;28;20378;-82
2021/01/12 12:05:28;;;;;;;15.60;13.73;;;;;;;;;;5011179;28;20387;-80
2021/01/12 12:07:54;;;;;;;15.52;13.63;;;;;;;;;;5012303;28;20445;-85
2021/01/12 12:10:20;;;;;;;15.53;13.90;;;;;;;;;;5010569;28;20401;-82
2021/01/12 12:12:46;;;;;;;15.05;13.50;;;;;;;;;;5012589;28;20367;-84
2021/01/12 12:15:13;;;;;;;17.58;15.45;;;;;;;;;;5011090;28;20975;-84
2021/01/12 12:17:39;;;;;;;17.08;15.25;;;;;;;;;;5012680;28;20850;-80
2021/01/12 12:20:05;;;;;;;18.42;16.50;;;;;;;;;;5011935;28;20746;-85
2021/01/12 12:22:31;;;;;;;17.65;15.85;;;;;;;;;;5012710;28;20414;-81
2021/01/12 12:24:59;;;;;;;16.13;14.60;;;;;;;;;;5010647;28;20441;-82
2021/01/12 12:27:25;;;;;;;16.58;14.77;;;;;;;;;;5011631;28;20922;-84
2021/01/12 12:29:51;;;;;;;16.77;14.98;;;;;;;;;;5011386;28;20505;-84
2021/01/12 12:32:17;;;;;;;15.87;14.20;;;;;;;;;;5011494;28;20545;-82
2021/01/12 12:34:43;;;;;;;16.27;14.57;;;;;;;;;;5011589;28;20395;-82
2021/01/12 12:37:10;;;;;;;14.20;12.80;;;;;;;;;;5011246;28;20912;-82
2021/01/12 12:39:37;;;;;;;13.75;12.45;;;;;;;;;;5012817;28;20837;-82
2021/01/12 12:42:03;;;;;;;13.60;12.30;;;;;;;;;;5012219;28;20387;-82
2021/01/12 12:44:32;;;;;;;11.75;10.65;;;;;;;;;;5012523;28;20410;-83
2021/01/12 12:47:05;;;;;;;11.60;10.50;;;;;;;;;;5012105;28;20372;-81
2021/01/12 12:49:31;;;;;;;10.35;9.35;;;;;;;;;;5012523;28;20378;-81
2021/01/12 12:51:58;;;;;;;9.80;8.88;;;;;;;;;;5013161;28;20454;-82
2021/01/12 12:54:26;;;;;;;9.43;8.57;;;;;;;;;;5014649;28;20429;-82
2021/01/12 12:56:55;;;;;;;9.90;8.93;;;;;;;;;;5014504;28;20374;-84
2021/01/12 12:59:21;;;;;;;9.85;8.88;;;;;;;;;;5009750;28;20453;-81
2021/01/12 13:01:48;;;;;;;9.05;8.25;;;;;;;;;;5010632;28;20374;-84
2021/01/12 13:04:14;;;;;;;8.73;7.85;;;;;;;;;;5009735;28;20886;-83
2021/01/12 13:06:40;;;;;;;8.63;7.82;;;;;;;;;;5011104;28;20850;-81
2021/01/12 13:09:08;;;;;;;8.20;7.40;;;;;;;;;;5010810;28;20379;-79
2021/01/12 13:11:36;;;;;;;7.95;7.15;;;;;;;;;;5011394;28;20367;-82
2021/01/12 13:14:03;;;;;;;6.78;6.18;;;;;;;;;;5009189;28;20437;-82
2021/01/12 13:16:31;;;;;;;6.90;6.30;;;;;;;;;;5011375;28;20371;-81
2021/01/12 13:18:58;;;;;;;6.95;6.43;;;;;;;;;;5011904;28;20714;-83
2021/01/12 13:21:25;;;;;;;7.15;6.30;;;;;;;;;;5012543;28;20368;-83
2021/01/12 13:23:56;;;;;;;6.60;6.00;;;;;;;;;;5010036;28;20458;-80
2021/01/12 13:26:22;;;;;;;6.32;5.72;;;;;;;;;;4994594;28;20383;-83
2021/01/12 13:28:48;;;;;;;5.80;5.30;;;;;;;;;;5010018;28;20394;-81
2021/01/12 13:31:14;;;;;;;6.18;5.38;;;;;;;;;;5010102;28;20854;-82
2021/01/12 13:33:40;;;;;;;5.05;4.55;;;;;;;;;;5008842;28;20474;-83
2021/01/12 13:36:06;;;;;;;4.17;3.83;;;;;;;;;;5009437;28;20493;-83
2021/01/12 13:38:34;;;;;;;3.75;3.45;;;;;;;;;;5013209;28;20391;-80
2021/01/12 13:41:01;;;;;;;3.67;3.38;;;;;;;;;;5013457;28;20897;-80
2021/01/12 13:43:26;;;;;;;3.08;2.72;;;;;;;;;;5014872;28;20386;-84
2021/01/12 13:45:52;;;;;;;3.40;3.10;;;;;;;;;;5014543;28;20382;-81
2021/01/12 13:48:20;;;;;;;2.70;2.50;;;;;;;;;;5014329;28;20762;-83
2021/01/12 13:50:46;;;;;;;3.25;2.95;;;;;;;;;;5014092;28;20386;-84
2021/01/12 13:53:12;;;;;;;3.40;3.10;;;;;;;;;;5014475;28;20742;-81
2021/01/12 13:55:39;;;;;;;3.47;3.17;;;;;;;;;;5013416;28;20449;-85
2021/01/12 13:58:06;;;;;;;2.50;2.30;;;;;;;;;;5012104;28;20953;-82
2021/01/12 14:00:33;;;;;;;1.80;1.70;;;;;;;;;;5012965;28;20365;-82
2021/01/12 14:02:59;;;;;;;1.55;1.20;;;;;;;;;;5012101;28;20368;-82
2021/01/12 14:05:26;;;;;;;1.70;1.38;;;;;;;;;;5013087;28;20433;-82
2021/01/12 14:07:52;;;;;;;1.20;1.00;;;;;;;;;;5013424;28;20390;-81
2021/01/12 14:10:18;;;;;;;1.23;1.13;;;;;;;;;;5013141;28;20375;-83
2021/01/12 14:12:47;;;;;;;1.63;1.42;;;;;;;;;;5013195;28;20367;-82
2021/01/12 14:15:13;;;;;;;2.20;2.00;;;;;;;;;;5013512;28;20399;-81
2021/01/12 14:17:47;;;;;;;2.10;1.90;;;;;;;;;;5013003;28;20453;-82
2021/01/12 14:20:14;;;;;;;2.40;2.20;;;;;;;;;;5012900;28;20366;-82
2021/01/12 14:22:43;;;;;;;2.17;1.98;;;;;;;;;;5001381;28;20736;-80